Time;durP1;ratioP1;P1;durP2;ratioP2;P2;SDS_P1;SDS_P2;PMS_P1;PMS_P2;Temp;Humidity;BMP_temperature;BMP_pressure;BME280_temperature;BME280_humidity;BME280_pressure;Samples;Min_cycle;Max_cycle;Signal;HPM_P1;HPM_P2
2022/03/03 00:00:23;;;;;;;67.93;33.30;;;1.70;99.90;;;;;;5034319;28;20048;-77
2022/03/03 00:02:49;;;;;;;77.43;35.50;;;1.70;99.90;;;;;;5033242;28;20061;-76
2022/03/03 00:05:14;;;;;;;70.15;33.97;;;1.70;99.90;;;;;;5071991;28;20048;-77
2022/03/03 00:07:40;;;;;;;70.45;33.60;;;1.60;99.90;;;;;;5042025;28;20083;-77
2022/03/03 00:10:08;;;;;;;70.85;33.30;;;1.60;99.90;;;;;;5039837;28;20055;-77
2022/03/03 00:12:34;;;;;;;75.50;33.60;;;1.60;99.90;;;;;;5032590;28;20053;-77
2022/03/03 00:15:00;;;;;;;72.32;32.90;;;1.60;99.90;;;;;;5065353;28;20054;-77
2022/03/03 00:17:25;;;;;;;75.82;34.00;;;1.50;99.90;;;;;;5037171;28;20038;-77
2022/03/03 00:19:51;;;;;;;70.55;32.70;;;1.50;99.90;;;;;;5040481;28;20056;-76
2022/03/03 00:22:17;;;;;;;64.07;33.20;;;1.70;99.90;;;;;;5036094;28;20074;-76
2022/03/03 00:24:43;;;;;;;75.93;34.47;;;1.50;99.90;;;;;;5064508;28;20094;-77
2022/03/03 00:27:11;;;;;;;70.28;32.03;;;1.40;99.90;;;;;;5033053;28;20069;-76
2022/03/03 00:29:36;;;;;;;74.15;34.97;;;1.40;99.90;;;;;;5034388;28;20045;-76
2022/03/03 00:32:02;;;;;;;67.07;34.22;;;1.40;99.90;;;;;;5035015;28;20500;-76
2022/03/03 00:34:28;;;;;;;68.45;34.13;;;1.30;99.90;;;;;;5032458;28;20037;-77
2022/03/03 00:36:53;;;;;;;75.70;35.08;;;1.30;99.90;;;;;;5037892;28;20461;-77
2022/03/03 00:39:19;;;;;;;66.55;32.05;;;1.20;99.90;;;;;;5044325;28;20108;-77
2022/03/03 00:41:45;;;;;;;68.68;33.30;;;1.20;99.90;;;;;;5039759;28;20056;-77
2022/03/03 00:44:11;;;;;;;71.40;33.38;;;1.20;99.90;;;;;;5070597;28;20049;-76
2022/03/03 00:46:37;;;;;;;71.95;34.05;;;1.20;99.90;;;;;;5072484;28;20392;-76
2022/03/03 00:49:04;;;;;;;71.97;33.80;;;1.20;99.90;;;;;;5039821;28;20064;-77
2022/03/03 00:51:30;;;;;;;68.50;33.47;;;1.20;99.90;;;;;;5038338;28;20059;-76
2022/03/03 00:53:56;;;;;;;74.13;34.65;;;1.20;99.90;;;;;;5046600;28;20048;-76
2022/03/03 00:56:21;;;;;;;64.07;31.45;;;1.20;99.90;;;;;;5042681;28;20068;-76
2022/03/03 00:58:48;;;;;;;73.20;34.42;;;1.20;99.90;;;;;;5049394;28;20119;-76
2022/03/03 01:01:14;;;;;;;66.15;32.72;;;1.10;99.90;;;;;;5039560;28;20049;-77
2022/03/03 01:03:40;;;;;;;70.70;33.58;;;1.10;99.90;;;;;;5051028;28;20055;-77
2022/03/03 01:06:05;;;;;;;70.82;32.63;;;1.10;99.90;;;;;;5045863;28;20041;-77
2022/03/03 01:08:31;;;;;;;73.28;35.22;;;1.10;99.90;;;;;;5047546;28;20114;-77
2022/03/03 01:10:57;;;;;;;76.30;32.80;;;1.10;99.90;;;;;;5044345;28;20035;-77
2022/03/03 01:13:22;;;;;;;66.30;31.27;;;1.10;99.90;;;;;;5045490;28;20438;-76
2022/03/03 01:15:49;;;;;;;71.90;33.75;;;1.00;99.90;;;;;;5043993;28;20477;-77
2022/03/03 01:18:16;;;;;;;70.10;32.58;;;1.00;99.90;;;;;;5044319;28;20080;-77
2022/03/03 01:20:41;;;;;;;68.30;33.10;;;1.00;99.90;;;;;;5075343;28;20140;-77
2022/03/03 01:23:07;;;;;;;67.63;31.98;;;1.00;99.90;;;;;;5044977;28;20115;-76
2022/03/03 01:25:33;;;;;;;69.07;33.83;;;1.00;99.90;;;;;;5046446;28;20037;-77
2022/03/03 01:27:58;;;;;;;68.45;33.28;;;0.90;99.90;;;;;;5045789;28;20095;-77
2022/03/03 01:30:24;;;;;;;75.65;34.13;;;0.90;99.90;;;;;;5043279;28;20072;-77
2022/03/03 01:32:50;;;;;;;63.47;32.42;;;0.80;99.90;;;;;;5048881;28;20131;-77
2022/03/03 01:35:15;;;;;;;65.03;33.10;;;0.80;99.90;;;;;;5046253;28;20051;-76
2022/03/03 01:37:41;;;;;;;69.80;33.17;;;0.80;99.90;;;;;;5042805;28;20063;-76
2022/03/03 01:40:07;;;;;;;67.05;32.08;;;0.70;99.90;;;;;;5074461;28;20529;-77
2022/03/03 01:42:34;;;;;;;67.97;32.33;;;0.70;99.90;;;;;;5045718;28;20055;-76
2022/03/03 01:44:59;;;;;;;68.95;32.63;;;0.70;99.90;;;;;;5038017;28;20056;-77
2022/03/03 01:47:26;;;;;;;70.63;33.08;;;0.60;99.90;;;;;;5041212;28;20053;-76
2022/03/03 01:49:54;;;;;;;66.75;32.38;;;0.60;99.90;;;;;;5039653;28;20385;-77
2022/03/03 01:52:21;;;;;;;67.20;31.38;;;0.60;99.90;;;;;;5045729;28;20052;-77
2022/03/03 01:54:47;;;;;;;69.35;31.10;;;0.60;99.90;;;;;;5045731;28;20041;-76
2022/03/03 01:57:17;;;;;;;72.30;32.20;;;0.50;99.90;;;;;;5038591;28;20076;-76
2022/03/03 01:59:43;;;;;;;67.53;32.03;;;0.50;99.90;;;;;;5041660;28;20510;-76
2022/03/03 02:02:10;;;;;;;67.30;32.70;;;0.50;99.90;;;;;;5057018;28;20048;-77
2022/03/03 02:04:38;;;;;;;79.78;34.28;;;0.40;99.90;;;;;;5074595;28;20111;-76
2022/03/03 02:07:05;;;;;;;71.18;32.15;;;0.40;99.90;;;;;;5049052;28;20391;-77
2022/03/03 02:09:31;;;;;;;68.00;32.67;;;0.40;99.90;;;;;;5037795;28;20084;-77
2022/03/03 02:11:56;;;;;;;72.72;35.17;;;0.40;99.90;;;;;;5042528;28;20435;-76
2022/03/03 02:14:23;;;;;;;65.78;32.97;;;0.40;99.90;;;;;;5042734;28;20041;-76
2022/03/03 02:16:48;;;;;;;68.28;35.20;;;0.40;99.90;;;;;;5040737;28;20044;-76
2022/03/03 02:19:18;;;;;;;70.25;33.75;;;0.30;99.90;;;;;;5079367;28;20053;-77
2022/03/03 02:21:49;;;;;;;73.88;33.03;;;0.30;99.90;;;;;;5039949;28;20037;-76
2022/03/03 02:24:15;;;;;;;73.93;33.88;;;0.30;99.90;;;;;;5039544;28;20045;-77
2022/03/03 02:26:42;;;;;;;61.58;31.00;;;0.30;99.90;;;;;;5045203;28;20094;-76
2022/03/03 02:29:07;;;;;;;68.85;32.47;;;0.20;99.90;;;;;;5041581;28;20040;-77
2022/03/03 02:31:33;;;;;;;65.60;29.92;;;0.20;99.90;;;;;;5050485;28;20044;-76
2022/03/03 02:33:59;;;;;;;68.75;32.17;;;0.20;99.90;;;;;;5039405;28;20076;-77
2022/03/03 02:36:30;;;;;;;67.47;31.70;;;0.10;99.90;;;;;;5038038;28;20037;-76
2022/03/03 02:39:00;;;;;;;67.22;32.03;;;0.10;99.90;;;;;;5039864;28;20045;-76
2022/03/03 02:41:27;;;;;;;67.20;31.73;;;0.10;99.90;;;;;;5040916;28;20091;-77
2022/03/03 02:43:53;;;;;;;67.47;32.45;;;0.10;99.90;;;;;;5044538;28;20064;-76
2022/03/03 02:46:19;;;;;;;68.38;31.30;;;0.00;99.90;;;;;;5048033;28;20123;-77
2022/03/03 02:48:45;;;;;;;71.07;32.47;;;0.00;99.90;;;;;;5046847;28;20151;-76
2022/03/03 02:51:12;;;;;;;62.90;30.88;;;0.00;99.90;;;;;;5033545;28;20048;-76
2022/03/03 02:53:38;;;;;;;67.63;32.30;;;0.00;99.90;;;;;;5046815;28;20463;-77
2022/03/03 02:56:06;;;;;;;64.07;31.92;;;0.00;99.90;;;;;;5041950;28;20059;-76
2022/03/03 02:58:32;;;;;;;62.65;31.75;;;-0.10;99.90;;;;;;5074724;28;20448;-76
2022/03/03 03:00:59;;;;;;;64.32;33.03;;;-0.10;99.90;;;;;;5041144;28;20485;-77
2022/03/03 03:03:25;;;;;;;63.95;32.20;;;-0.10;99.90;;;;;;5042326;28;20056;-76
2022/03/03 03:05:51;;;;;;;64.10;32.38;;;-0.10;99.90;;;;;;5075630;28;20048;-76
2022/03/03 03:08:16;;;;;;;65.78;30.48;;;-0.10;99.90;;;;;;5045050;28;20126;-77
2022/03/03 03:10:43;;;;;;;65.72;31.02;;;-0.10;99.90;;;;;;5043546;28;20067;-76
2022/03/03 03:13:12;;;;;;;70.22;33.05;;;0.00;99.90;;;;;;5041631;28;20084;-76
2022/03/03 03:15:38;;;;;;;67.75;31.48;;;-0.20;99.90;;;;;;5076852;28;20098;-77
2022/03/03 03:18:19;;;;;;;69.28;32.05;;;-0.10;99.90;;;;;;5041714;28;20044;-77
2022/03/03 03:20:47;;;;;;;72.68;33.95;;;-0.20;99.90;;;;;;5047304;28;20076;-77
2022/03/03 03:23:15;;;;;;;65.68;32.22;;;-0.20;99.90;;;;;;5035012;28;20032;-77
2022/03/03 03:25:43;;;;;;;75.50;33.50;;;-0.10;99.90;;;;;;5041731;28;20472;-77
2022/03/03 03:28:10;;;;;;;70.30;34.33;;;-0.10;99.90;;;;;;5073733;28;20044;-76
2022/03/03 03:30:36;;;;;;;76.88;33.70;;;-0.10;99.90;;;;;;5070941;28;20046;-77
2022/03/03 03:33:02;;;;;;;69.80;33.10;;;-0.10;99.90;;;;;;5040000;28;20044;-77
2022/03/03 03:35:28;;;;;;;69.20;33.65;;;-0.10;99.90;;;;;;5074952;28;20481;-77
2022/03/03 03:37:54;;;;;;;70.53;34.58;;;-0.10;99.90;;;;;;5070716;28;20044;-77
2022/03/03 03:40:20;;;;;;;73.68;33.58;;;0.60;99.90;;;;;;5057744;28;20041;-76
2022/03/03 03:42:46;;;;;;;72.95;33.50;;;-0.10;99.90;;;;;;5037678;28;20047;-77
2022/03/03 03:45:12;;;;;;;72.53;33.72;;;0.00;99.90;;;;;;5038094;28;20041;-77
2022/03/03 03:47:39;;;;;;;71.13;34.25;;;0.00;99.90;;;;;;5038717;28;20109;-77
2022/03/03 03:50:08;;;;;;;71.65;33.85;;;0.00;99.90;;;;;;5053340;28;20049;-77
2022/03/03 03:52:35;;;;;;;69.90;33.90;;;0.00;99.90;;;;;;5046990;28;20817;-76
2022/03/03 03:55:01;;;;;;;74.85;34.70;;;0.00;99.90;;;;;;5040509;28;20048;-77
2022/03/03 03:57:26;;;;;;;79.85;34.70;;;0.00;99.90;;;;;;5067105;28;20040;-77
2022/03/03 03:59:52;;;;;;;72.13;33.10;;;0.00;99.90;;;;;;5039957;28;20083;-76
2022/03/03 04:02:18;;;;;;;70.93;34.30;;;0.00;99.90;;;;;;5039381;28;20098;-77
2022/03/03 04:04:43;;;;;;;75.80;33.67;;;0.00;99.90;;;;;;5041786;28;20052;-77
2022/03/03 04:07:09;;;;;;;68.15;32.67;;;0.00;99.90;;;;;;5056135;28;20040;-77
2022/03/03 04:09:34;;;;;;;79.32;34.65;;;0.00;99.90;;;;;;5058696;28;20044;-77
2022/03/03 04:12:02;;;;;;;70.65;32.53;;;0.00;99.90;;;;;;5039549;28;20037;-77
2022/03/03 04:14:28;;;;;;;77.38;34.65;;;-0.10;99.90;;;;;;5065543;28;20480;-76
2022/03/03 04:16:53;;;;;;;69.10;33.35;;;-0.10;99.90;;;;;;5077021;28;20037;-77
2022/03/03 04:19:19;;;;;;;63.92;32.53;;;-0.10;99.90;;;;;;5037689;28;20052;-77
2022/03/03 04:21:45;;;;;;;68.38;33.83;;;-0.10;99.90;;;;;;5061644;28;20063;-76
2022/03/03 04:24:11;;;;;;;79.05;34.28;;;-0.10;99.90;;;;;;5042380;28;20148;-77
2022/03/03 04:26:36;;;;;;;71.63;33.58;;;0.10;99.90;;;;;;5047157;28;20044;-77
2022/03/03 04:29:03;;;;;;;67.35;32.85;;;-0.10;99.90;;;;;;5044492;28;20048;-77
2022/03/03 04:31:29;;;;;;;65.10;31.38;;;-0.20;99.90;;;;;;5044733;28;20171;-77
2022/03/03 04:33:56;;;;;;;70.72;33.08;;;-0.20;99.90;;;;;;5041742;28;20132;-77
2022/03/03 04:36:22;;;;;;;71.70;31.48;;;-0.20;99.90;;;;;;5076386;28;20052;-77
2022/03/03 04:38:50;;;;;;;68.18;31.10;;;-0.20;99.90;;;;;;5044287;28;20043;-76
2022/03/03 04:41:16;;;;;;;72.28;33.38;;;-0.20;99.90;;;;;;5049562;28;20480;-77
2022/03/03 04:43:42;;;;;;;64.07;31.85;;;-0.20;99.90;;;;;;5042593;28;20700;-76
2022/03/03 04:46:09;;;;;;;62.92;31.23;;;-0.20;99.90;;;;;;5044924;28;20036;-77
2022/03/03 04:48:35;;;;;;;66.03;30.50;;;-0.20;99.90;;;;;;5048304;28;20469;-77
2022/03/03 04:51:01;;;;;;;64.90;32.42;;;-0.20;99.90;;;;;;5042542;28;20048;-77
2022/03/03 04:53:28;;;;;;;66.10;32.30;;;-0.20;99.90;;;;;;5044006;28;20056;-77
2022/03/03 04:55:54;;;;;;;63.05;31.05;;;0.00;99.90;;;;;;5047289;28;20457;-77
2022/03/03 04:58:20;;;;;;;63.85;30.05;;;-0.30;99.90;;;;;;5040107;28;20044;-77
2022/03/03 05:00:46;;;;;;;69.25;31.30;;;-0.30;99.90;;;;;;5050941;28;20419;-77
2022/03/03 05:03:12;;;;;;;63.33;31.60;;;-0.30;99.90;;;;;;5042076;28;20043;-77
2022/03/03 05:05:38;;;;;;;59.67;29.88;;;-0.30;99.90;;;;;;5041339;28;20044;-76
2022/03/03 05:08:04;;;;;;;61.38;30.70;;;-0.30;99.90;;;;;;5044179;28;20076;-77
2022/03/03 05:10:29;;;;;;;59.03;29.05;;;-0.30;99.90;;;;;;5039918;28;20055;-77
2022/03/03 05:12:55;;;;;;;57.28;29.23;;;-0.30;99.90;;;;;;5072988;28;20045;-76
2022/03/03 05:15:20;;;;;;;57.65;28.52;;;-0.30;99.90;;;;;;5041616;28;20043;-77
2022/03/03 05:17:46;;;;;;;59.55;31.17;;;-0.40;99.90;;;;;;5047762;28;20045;-77
2022/03/03 05:20:13;;;;;;;60.30;28.38;;;-0.30;99.90;;;;;;5041417;28;20056;-76
2022/03/03 05:22:39;;;;;;;58.78;29.23;;;-0.40;99.90;;;;;;5041721;28;20059;-76
2022/03/03 05:25:05;;;;;;;51.72;27.98;;;-0.40;99.90;;;;;;5059341;28;20044;-77
2022/03/03 05:27:33;;;;;;;57.20;28.48;;;-0.40;99.90;;;;;;5061676;28;20041;-76
2022/03/03 05:29:59;;;;;;;56.65;28.27;;;-0.20;99.90;;;;;;5049182;28;20044;-76
2022/03/03 05:32:25;;;;;;;56.45;27.52;;;-0.40;99.90;;;;;;5045552;28;20041;-77
2022/03/03 05:34:50;;;;;;;63.35;30.90;;;-0.40;99.90;;;;;;5042361;28;20060;-77
2022/03/03 05:37:22;;;;;;;55.75;27.88;;;-0.40;99.90;;;;;;5046611;28;20127;-76
2022/03/03 05:39:48;;;;;;;56.58;28.83;;;-0.50;99.90;;;;;;5036163;28;20183;-76
2022/03/03 05:42:14;;;;;;;59.03;28.30;;;-0.50;99.90;;;;;;5053187;28;20036;-76
2022/03/03 05:44:42;;;;;;;58.83;28.83;;;-0.50;99.90;;;;;;5050939;28;20774;-76
2022/03/03 05:47:08;;;;;;;58.08;28.75;;;-0.50;99.90;;;;;;5049703;28;20064;-76
2022/03/03 05:49:36;;;;;;;59.58;28.27;;;-0.50;99.90;;;;;;5049670;28;20403;-77
2022/03/03 05:52:04;;;;;;;59.83;29.33;;;-0.50;99.90;;;;;;5040473;28;20040;-76
2022/03/03 05:54:30;;;;;;;57.70;29.45;;;-0.50;99.90;;;;;;5041862;28;20492;-76
2022/03/03 05:56:58;;;;;;;56.50;28.65;;;-0.50;99.90;;;;;;5043996;28;20048;-76
2022/03/03 05:59:24;;;;;;;58.92;28.90;;;-0.60;99.90;;;;;;5061281;28;20449;-77
2022/03/03 06:01:50;;;;;;;57.63;30.00;;;-0.50;99.90;;;;;;5052981;28;20048;-77
2022/03/03 06:04:16;;;;;;;59.22;29.42;;;-0.80;99.90;;;;;;5048074;28;20392;-76
2022/03/03 06:06:53;;;;;;;63.70;30.13;;;-0.60;99.90;;;;;;5044896;28;20045;-77
2022/03/03 06:09:28;;;;;;;62.05;29.83;;;-0.60;99.90;;;;;;5040810;28;20120;-76
2022/03/03 06:12:19;;;;;;;59.45;29.92;;;-0.60;99.90;;;;;;5052529;28;20477;-75
2022/03/03 06:14:53;;;;;;;56.08;28.83;;;-0.60;99.90;;;;;;5052052;28;20045;-75
2022/03/03 06:17:23;;;;;;;59.85;29.50;;;-0.60;99.90;;;;;;5040518;28;20033;-76
2022/03/03 06:19:51;;;;;;;59.20;29.67;;;-0.70;99.90;;;;;;5053376;28;20048;-76
2022/03/03 06:22:18;;;;;;;54.40;28.27;;;-0.70;99.90;;;;;;5042771;28;20599;-76
2022/03/03 06:24:44;;;;;;;60.53;29.85;;;-0.70;99.90;;;;;;5044486;28;20045;-76
2022/03/03 06:27:10;;;;;;;61.42;29.98;;;-0.70;99.90;;;;;;5042597;28;20090;-76
2022/03/03 06:29:36;;;;;;;64.00;30.85;;;-0.70;99.90;;;;;;5036471;28;20048;-76
2022/03/03 06:32:02;;;;;;;59.35;31.60;;;-0.70;99.90;;;;;;5044167;28;20059;-76
2022/03/03 06:34:28;;;;;;;59.60;29.65;;;-0.60;99.90;;;;;;5048611;28;20057;-76
2022/03/03 06:36:55;;;;;;;61.25;31.20;;;-0.60;99.90;;;;;;5043619;28;20057;-76
2022/03/03 06:39:21;;;;;;;57.03;29.20;;;-0.60;99.90;;;;;;5038856;28;20064;-75
2022/03/03 06:41:47;;;;;;;55.55;28.73;;;-0.60;99.90;;;;;;5054913;28;20071;-76
2022/03/03 06:44:13;;;;;;;63.45;31.60;;;-0.60;99.90;;;;;;5048432;28;20820;-75
2022/03/03 06:46:39;;;;;;;60.65;30.13;;;-0.60;99.90;;;;;;5037991;28;20057;-77
2022/03/03 06:49:05;;;;;;;56.60;29.48;;;-0.60;99.90;;;;;;5039927;28;20052;-77
2022/03/03 06:51:39;;;;;;;61.30;31.52;;;-0.60;99.90;;;;;;5035186;28;20036;-77
2022/03/03 06:54:06;;;;;;;60.53;29.08;;;-0.50;99.90;;;;;;5038518;28;20049;-76
2022/03/03 06:56:35;;;;;;;60.92;31.35;;;-0.50;99.90;;;;;;5070678;28;20041;-76
2022/03/03 06:59:01;;;;;;;61.17;30.23;;;-0.50;99.90;;;;;;5046497;28;20051;-76
2022/03/03 07:01:28;;;;;;;62.03;31.25;;;-0.50;99.90;;;;;;5050723;28;20040;-74
2022/03/03 07:03:55;;;;;;;61.05;31.23;;;-0.20;99.90;;;;;;5078193;28;20048;-75
2022/03/03 07:06:22;;;;;;;61.13;30.15;;;-0.40;99.90;;;;;;5037914;28;20383;-74
2022/03/03 07:08:53;;;;;;;65.25;31.70;;;-0.40;99.90;;;;;;5041928;28;20503;-76
2022/03/03 07:11:19;;;;;;;58.92;31.00;;;-0.40;99.90;;;;;;5043659;28;20071;-74
2022/03/03 07:13:46;;;;;;;65.47;30.65;;;-0.40;99.90;;;;;;5040825;28;20107;-75
2022/03/03 07:16:23;;;;;;;65.05;31.98;;;-0.30;99.90;;;;;;5048130;28;20045;-78
2022/03/03 07:18:52;;;;;;;64.03;31.45;;;-0.30;99.90;;;;;;5038831;28;20549;-74
2022/03/03 07:21:31;;;;;;;64.97;32.15;;;-0.30;99.90;;;;;;5045764;28;20448;-74
2022/03/03 07:24:04;;;;;;;63.08;30.33;;;-0.20;99.90;;;;;;5040283;28;20053;-75
2022/03/03 07:26:31;;;;;;;62.38;32.25;;;-0.10;99.90;;;;;;5059432;28;20041;-74
2022/03/03 07:29:01;;;;;;;62.85;31.30;;;0.10;99.90;;;;;;5051644;28;20044;-74
2022/03/03 07:31:31;;;;;;;58.35;31.35;;;0.00;99.90;;;;;;5044021;28;20082;-74
2022/03/03 07:34:00;;;;;;;63.67;31.92;;;0.00;99.90;;;;;;5041031;28;20126;-74
2022/03/03 07:36:35;;;;;;;59.83;31.50;;;0.10;99.90;;;;;;5044429;28;20083;-74
2022/03/03 07:39:05;;;;;;;62.75;31.92;;;1.30;99.90;;;;;;5046194;28;20052;-74
2022/03/03 07:41:31;;;;;;;59.45;30.88;;;0.30;99.90;;;;;;5037443;28;20467;-74
2022/03/03 07:43:58;;;;;;;60.72;32.85;;;0.20;99.90;;;;;;5044195;28;20076;-74
2022/03/03 07:46:26;;;;;;;67.88;33.33;;;0.30;99.90;;;;;;5057353;28;20045;-74
2022/03/03 07:48:53;;;;;;;62.63;30.48;;;0.30;99.90;;;;;;5057328;28;20056;-74
2022/03/03 07:51:20;;;;;;;62.28;32.75;;;0.30;99.90;;;;;;5040441;28;20056;-74
2022/03/03 07:53:45;;;;;;;65.50;31.98;;;0.50;99.90;;;;;;5048856;28;20032;-74
2022/03/03 07:56:19;;;;;;;59.70;31.40;;;0.40;99.90;;;;;;5035531;28;20721;-74
2022/03/03 07:58:47;;;;;;;63.05;31.05;;;0.50;99.90;;;;;;5054584;28;20127;-77
2022/03/03 08:01:17;;;;;;;60.47;31.25;;;1.10;99.90;;;;;;5042048;28;20067;-77
2022/03/03 08:03:45;;;;;;;61.50;31.77;;;0.60;99.90;;;;;;5040875;28;20060;-77
2022/03/03 08:06:14;;;;;;;61.55;31.90;;;0.60;99.90;;;;;;5037897;28;20170;-77
2022/03/03 08:08:40;;;;;;;62.78;31.17;;;0.70;99.90;;;;;;5063045;28;20123;-77
2022/03/03 08:11:07;;;;;;;63.80;32.80;;;0.70;99.90;;;;;;5042853;28;20127;-76
2022/03/03 08:13:34;;;;;;;63.00;31.27;;;1.10;99.90;;;;;;5069135;28;20499;-77
2022/03/03 08:16:00;;;;;;;69.70;32.60;;;0.90;99.90;;;;;;5062245;28;20138;-77
2022/03/03 08:18:27;;;;;;;67.50;32.33;;;0.90;99.90;;;;;;5038908;28;20041;-77
2022/03/03 08:20:55;;;;;;;64.43;31.48;;;1.00;99.90;;;;;;5037179;28;20087;-77
2022/03/03 08:23:21;;;;;;;71.95;32.03;;;1.00;99.90;;;;;;5064954;28;20040;-77
2022/03/03 08:25:47;;;;;;;58.50;30.42;;;1.10;99.90;;;;;;5048106;28;20048;-78
2022/03/03 08:28:13;;;;;;;55.45;30.38;;;1.20;99.90;;;;;;5041815;28;20501;-76
2022/03/03 08:30:40;;;;;;;59.65;29.55;;;1.30;99.90;;;;;;5046573;28;20049;-78
2022/03/03 08:33:27;;;;;;;60.55;30.17;;;1.30;99.90;;;;;;5035884;28;20391;-79
2022/03/03 08:35:56;;;;;;;54.25;29.00;;;1.40;99.90;;;;;;5048667;28;20041;-77
2022/03/03 08:38:37;;;;;;;58.40;29.60;;;1.50;99.90;;;;;;5045306;28;20048;-77
2022/03/03 08:41:05;;;;;;;54.90;28.35;;;1.60;99.90;;;;;;5049789;28;20040;-77
2022/03/03 08:43:33;;;;;;;54.53;29.10;;;1.60;99.90;;;;;;5047912;28;20094;-77
2022/03/03 08:46:02;;;;;;;51.70;28.02;;;1.70;99.90;;;;;;5056948;28;20033;-77
2022/03/03 08:48:30;;;;;;;50.55;27.70;;;1.80;99.90;;;;;;5042663;28;20068;-78
2022/03/03 08:50:58;;;;;;;52.58;28.35;;;1.80;99.90;;;;;;5041029;28;20049;-77
2022/03/03 08:53:24;;;;;;;54.40;27.42;;;1.90;99.90;;;;;;5044588;28;20400;-77
2022/03/03 08:55:50;;;;;;;52.72;28.15;;;2.40;99.90;;;;;;5049264;28;20045;-77
2022/03/03 08:58:16;;;;;;;52.97;28.60;;;2.10;99.90;;;;;;5048028;28;20087;-77
2022/03/03 09:00:43;;;;;;;57.10;28.50;;;2.20;99.90;;;;;;5048414;28;20465;-77
2022/03/03 09:03:09;;;;;;;52.67;27.95;;;2.30;99.90;;;;;;5061020;28;20483;-77
2022/03/03 09:05:35;;;;;;;57.85;28.52;;;2.30;99.90;;;;;;5055053;28;20043;-77
2022/03/03 09:08:00;;;;;;;48.65;27.58;;;2.40;99.90;;;;;;5043703;28;20037;-76
2022/03/03 09:10:26;;;;;;;52.92;28.00;;;2.50;99.90;;;;;;5043149;28;20049;-77
2022/03/03 09:12:52;;;;;;;54.08;27.75;;;2.50;99.90;;;;;;5043658;28;20056;-77
2022/03/03 09:15:17;;;;;;;49.28;26.33;;;2.60;99.90;;;;;;5053496;28;20131;-78
2022/03/03 09:17:43;;;;;;;46.95;25.10;;;2.70;99.90;;;;;;5047341;28;20049;-77
2022/03/03 09:20:14;;;;;;;47.88;25.73;;;2.80;99.90;;;;;;5043830;28;20059;-77
2022/03/03 09:22:41;;;;;;;51.30;26.83;;;2.80;99.90;;;;;;5072655;28;20048;-77
2022/03/03 09:25:08;;;;;;;47.65;25.13;;;3.00;99.90;;;;;;5054566;28;20582;-79
2022/03/03 09:27:34;;;;;;;46.67;25.38;;;3.10;99.90;;;;;;5065904;28;20044;-79
2022/03/03 09:29:59;;;;;;;48.50;25.02;;;3.20;99.90;;;;;;5053130;28;20041;-79
2022/03/03 09:32:25;;;;;;;48.67;25.42;;;3.40;99.90;;;;;;5044130;28;20109;-79
2022/03/03 09:34:50;;;;;;;44.58;24.48;;;3.60;99.90;;;;;;5073340;28;20419;-79
2022/03/03 09:37:16;;;;;;;46.75;24.73;;;3.70;99.90;;;;;;5055881;28;20047;-78
2022/03/03 09:39:47;;;;;;;43.15;22.48;;;4.10;99.90;;;;;;5067342;28;20053;-78
2022/03/03 09:42:13;;;;;;;39.42;22.30;;;4.10;99.90;;;;;;5051272;28;20044;-73
2022/03/03 09:44:39;;;;;;;38.08;21.30;;;4.30;99.90;;;;;;5052742;28;20154;-73
2022/03/03 09:47:04;;;;;;;39.67;23.10;;;4.50;99.90;;;;;;5054291;28;20088;-73
2022/03/03 09:49:30;;;;;;;44.45;22.23;;;4.60;99.90;;;;;;5045486;28;20045;-73
2022/03/03 09:51:56;;;;;;;39.65;22.50;;;4.80;99.90;;;;;;5044862;28;20040;-73
2022/03/03 09:54:22;;;;;;;46.05;22.75;;;4.90;99.90;;;;;;5054912;28;20139;-73
2022/03/03 09:56:47;;;;;;;40.40;22.45;;;5.10;99.90;;;;;;5070875;28;20067;-73
2022/03/03 09:59:13;;;;;;;39.60;22.20;;;5.30;99.90;;;;;;5065427;28;20098;-73
2022/03/03 10:01:40;;;;;;;35.17;20.65;;;5.40;99.90;;;;;;5080158;28;20040;-72
2022/03/03 10:04:21;;;;;;;38.50;19.92;;;5.60;99.90;;;;;;5052133;28;20373;-73
2022/03/03 10:06:47;;;;;;;38.03;21.83;;;5.80;99.90;;;;;;5047524;28;20056;-73
2022/03/03 10:09:13;;;;;;;31.25;19.05;;;5.90;99.90;;;;;;5072222;28;20041;-73
2022/03/03 10:11:48;;;;;;;32.80;19.63;;;6.10;99.90;;;;;;5049939;28;20097;-73
2022/03/03 10:14:25;;;;;;;32.67;18.98;;;6.20;99.90;;;;;;5045578;28;20130;-73
2022/03/03 10:16:50;;;;;;;29.15;18.02;;;6.40;99.90;;;;;;5046029;28;20183;-73
2022/03/03 10:19:16;;;;;;;30.23;18.95;;;6.50;99.90;;;;;;5070548;28;20115;-72
2022/03/03 10:21:43;;;;;;;30.58;18.05;;;6.70;99.90;;;;;;5051143;28;20049;-73
2022/03/03 10:24:26;;;;;;;30.48;17.98;;;6.90;99.90;;;;;;5086233;28;20638;-71
2022/03/03 10:27:06;;;;;;;30.23;18.13;;;7.00;99.90;;;;;;5081812;28;20040;-72
2022/03/03 10:29:33;;;;;;;28.65;17.77;;;7.10;99.90;;;;;;5048744;28;20060;-71
2022/03/03 10:31:59;;;;;;;31.13;17.20;;;7.20;99.90;;;;;;5042147;28;20127;-71
2022/03/03 10:34:33;;;;;;;32.08;18.40;;;7.30;99.90;;;;;;5040005;28;20162;-71
2022/03/03 10:37:04;;;;;;;28.05;17.90;;;7.40;99.90;;;;;;5040389;28;20044;-71
2022/03/03 10:39:42;;;;;;;31.75;18.52;;;7.50;99.90;;;;;;5070393;28;20048;-72
2022/03/03 10:42:20;;;;;;;29.13;17.60;;;7.70;99.90;;;;;;5070149;28;20509;-72
2022/03/03 10:44:51;;;;;;;29.55;19.25;;;7.80;99.90;;;;;;5040522;28;20059;-72
2022/03/03 10:47:21;;;;;;;30.42;18.50;;;7.90;99.90;;;;;;5040447;28;20149;-72
2022/03/03 10:49:49;;;;;;;29.40;19.10;;;8.00;99.90;;;;;;5047707;28;20999;-73
2022/03/03 10:52:19;;;;;;;27.95;18.10;;;8.20;99.90;;;;;;5053365;28;20081;-73
2022/03/03 10:54:58;;;;;;;30.85;18.90;;;8.30;99.90;;;;;;5048370;28;20110;-77
2022/03/03 10:57:38;;;;;;;29.95;18.00;;;8.40;99.90;;;;;;5044154;28;20388;-76
2022/03/03 11:00:20;;;;;;;29.38;18.88;;;8.50;99.90;;;;;;5043721;28;20049;-76
2022/03/03 11:02:50;;;;;;;27.90;18.00;;;8.60;99.90;;;;;;5040544;28;20110;-76
2022/03/03 11:05:21;;;;;;;27.65;18.55;;;8.80;99.90;;;;;;5040100;28;20041;-76
2022/03/03 11:07:49;;;;;;;28.08;18.83;;;8.80;99.90;;;;;;5051948;28;20033;-76
2022/03/03 11:10:17;;;;;;;27.65;17.42;;;8.90;99.90;;;;;;5051076;28;20076;-76
2022/03/03 11:12:44;;;;;;;29.38;17.25;;;9.00;99.90;;;;;;5046046;28;20044;-75
2022/03/03 11:15:15;;;;;;;25.95;17.80;;;9.10;99.90;;;;;;5044533;28;20370;-77
2022/03/03 11:17:42;;;;;;;28.75;17.40;;;9.20;99.90;;;;;;5074172;28;20429;-76
2022/03/03 11:20:10;;;;;;;31.77;18.35;;;9.20;99.90;;;;;;5051999;28;20488;-75
2022/03/03 11:22:36;;;;;;;29.70;17.73;;;9.40;99.90;;;;;;5034609;28;20132;-76
2022/03/03 11:25:06;;;;;;;28.85;16.98;;;9.50;99.90;;;;;;5040691;28;20132;-76
2022/03/03 11:27:36;;;;;;;27.77;17.60;;;9.60;99.90;;;;;;5041487;28;20059;-76
2022/03/03 11:30:30;;;;;;;30.75;18.67;;;9.70;99.90;;;;;;5048315;28;20072;-76
2022/03/03 11:33:18;;;;;;;30.02;17.50;;;9.70;99.90;;;;;;5046369;28;20044;-76
2022/03/03 11:35:50;;;;;;;28.55;17.60;;;9.70;99.90;;;;;;5056511;28;20106;-76
2022/03/03 11:38:20;;;;;;;23.55;16.80;;;9.80;99.90;;;;;;5059238;28;20040;-76
2022/03/03 11:40:58;;;;;;;25.50;16.02;;;9.80;99.90;;;;;;5037578;28;20053;-77
2022/03/03 11:43:26;;;;;;;26.65;17.55;;;9.80;99.90;;;;;;5062363;28;20115;-76
2022/03/03 11:45:57;;;;;;;26.85;17.42;;;9.90;99.90;;;;;;5064609;28;20049;-76
2022/03/03 11:48:23;;;;;;;25.67;16.73;;;10.00;99.90;;;;;;5072796;28;20053;-76
2022/03/03 11:50:53;;;;;;;27.60;17.23;;;10.00;99.50;;;;;;5066081;28;20045;-77
2022/03/03 11:53:24;;;;;;;24.90;16.58;;;10.00;97.90;;;;;;5049748;28;20055;-77
2022/03/03 11:56:02;;;;;;;29.20;17.80;;;10.00;99.80;;;;;;5056344;28;20049;-76
2022/03/03 11:58:31;;;;;;;28.90;16.60;;;10.20;98.30;;;;;;5048324;28;20040;-76
2022/03/03 12:01:05;;;;;;;25.25;16.02;;;10.20;99.90;;;;;;5046225;28;20318;-76
2022/03/03 12:03:32;;;;;;;24.38;16.10;;;10.30;99.90;;;;;;5068325;28;20121;-76
2022/03/03 12:06:09;;;;;;;24.98;16.15;;;10.30;98.50;;;;;;5053978;28;20643;-76
2022/03/03 12:08:37;;;;;;;20.88;14.75;;;10.40;96.10;;;;;;5069187;28;20056;-76
2022/03/03 12:11:11;;;;;;;27.95;15.90;;;10.40;96.60;;;;;;5062894;28;20047;-75
2022/03/03 12:13:40;;;;;;;22.27;15.15;;;10.40;96.30;;;;;;5051177;28;20053;-76
2022/03/03 12:16:32;;;;;;;26.65;16.23;;;10.50;94.70;;;;;;5066123;28;20496;-75
2022/03/03 12:19:00;;;;;;;21.83;15.32;;;10.50;94.30;;;;;;5057056;28;20040;-75
2022/03/03 12:21:32;;;;;;;24.98;16.45;;;10.60;95.90;;;;;;5051996;28;20059;-75
2022/03/03 12:24:13;;;;;;;25.83;16.38;;;10.60;93.80;;;;;;5068436;28;20396;-74
2022/03/03 12:26:57;;;;;;;24.90;16.58;;;10.70;93.60;;;;;;5067910;28;20053;-75
2022/03/03 12:29:52;;;;;;;25.42;16.33;;;10.70;94.80;;;;;;5043444;28;20622;-75
2022/03/03 12:32:24;;;;;;;;;;;10.80;94.00;;;;;;5062290;28;20487;-75
2022/03/03 12:35:00;;;;;;;23.15;14.35;;;10.90;95.20;;;;;;5045310;28;19920;-74
2022/03/03 12:37:27;;;;;;;24.30;14.68;;;10.90;93.40;;;;;;5073643;28;20079;-74